sensor_id;sensor_type;location;lat;lon;timestamp;P1;durP1;ratioP1;P2;durP2;ratioP2
30617;SDS011;17384;51.214;9.202;2023-01-28T00:00:27;12.40;;;6.25;;
30617;SDS011;17384;51.214;9.202;2023-01-28T00:02:53;13.63;;;7.43;;
30617;SDS011;17384;51.214;9.202;2023-01-28T00:05:18;15.68;;;6.93;;
30617;SDS011;17384;51.214;9.202;2023-01-28T00:07:44;18.10;;;7.88;;
30617;SDS011;17384;51.214;9.202;2023-01-28T00:10:09;18.90;;;7.68;;
30617;SDS011;17384;51.214;9.202;2023-01-28T00:12:36;13.82;;;7.28;;
30617;SDS011;17384;51.214;9.202;2023-01-28T00:15:01;12.35;;;6.03;;
30617;SDS011;17384;51.214;9.202;2023-01-28T00:17:27;12.07;;;7.05;;
30617;SDS011;17384;51.214;9.202;2023-01-28T00:19:53;11.20;;;7.28;;
30617;SDS011;17384;51.214;9.202;2023-01-28T00:22:18;12.45;;;6.75;;
30617;SDS011;17384;51.214;9.202;2023-01-28T00:24:44;13.73;;;6.57;;
30617;SDS011;17384;51.214;9.202;2023-01-28T00:27:10;12.60;;;7.38;;
30617;SDS011;17384;51.214;9.202;2023-01-28T00:29:36;13.90;;;6.88;;
30617;SDS011;17384;51.214;9.202;2023-01-28T00:32:02;17.10;;;7.60;;
30617;SDS011;17384;51.214;9.202;2023-01-28T00:34:28;14.77;;;7.50;;
30617;SDS011;17384;51.214;9.202;2023-01-28T00:36:53;15.40;;;7.10;;
30617;SDS011;17384;51.214;9.202;2023-01-28T00:39:22;14.55;;;7.28;;
30617;SDS011;17384;51.214;9.202;2023-01-28T00:41:49;10.60;;;6.90;;
30617;SDS011;17384;51.214;9.202;2023-01-28T00:44:15;14.65;;;6.72;;
30617;SDS011;17384;51.214;9.202;2023-01-28T00:46:41;12.23;;;6.65;;
30617;SDS011;17384;51.214;9.202;2023-01-28T00:49:06;11.50;;;6.35;;
30617;SDS011;17384;51.214;9.202;2023-01-28T00:51:32;10.10;;;6.43;;
30617;SDS011;17384;51.214;9.202;2023-01-28T00:53:58;11.32;;;6.30;;
30617;SDS011;17384;51.214;9.202;2023-01-28T00:56:23;13.43;;;7.03;;
30617;SDS011;17384;51.214;9.202;2023-01-28T00:58:49;13.07;;;6.28;;
30617;SDS011;17384;51.214;9.202;2023-01-28T01:01:19;10.57;;;6.18;;
30617;SDS011;17384;51.214;9.202;2023-01-28T01:03:46;9.10;;;6.25;;
30617;SDS011;17384;51.214;9.202;2023-01-28T01:06:13;8.40;;;5.70;;
30617;SDS011;17384;51.214;9.202;2023-01-28T01:08:40;9.35;;;6.38;;
30617;SDS011;17384;51.214;9.202;2023-01-28T01:11:07;10.93;;;5.68;;
30617;SDS011;17384;51.214;9.202;2023-01-28T01:13:34;16.15;;;5.97;;
30617;SDS011;17384;51.214;9.202;2023-01-28T01:16:02;11.82;;;6.82;;
30617;SDS011;17384;51.214;9.202;2023-01-28T01:18:29;14.27;;;5.90;;
30617;SDS011;17384;51.214;9.202;2023-01-28T01:20:55;8.80;;;5.60;;
30617;SDS011;17384;51.214;9.202;2023-01-28T01:23:23;13.05;;;5.45;;
30617;SDS011;17384;51.214;9.202;2023-01-28T01:25:53;8.27;;;5.30;;
30617;SDS011;17384;51.214;9.202;2023-01-28T01:28:18;9.85;;;4.97;;
30617;SDS011;17384;51.214;9.202;2023-01-28T01:30:45;8.38;;;5.57;;
30617;SDS011;17384;51.214;9.202;2023-01-28T01:33:11;10.75;;;5.28;;
30617;SDS011;17384;51.214;9.202;2023-01-28T01:35:36;11.98;;;6.40;;
30617;SDS011;17384;51.214;9.202;2023-01-28T01:38:02;7.95;;;5.47;;
30617;SDS011;17384;51.214;9.202;2023-01-28T01:40:28;13.43;;;5.90;;
30617;SDS011;17384;51.214;9.202;2023-01-28T01:42:54;7.05;;;4.90;;
30617;SDS011;17384;51.214;9.202;2023-01-28T01:45:19;6.60;;;4.65;;
30617;SDS011;17384;51.214;9.202;2023-01-28T01:53:00;7.95;;;5.30;;
30617;SDS011;17384;51.214;9.202;2023-01-28T01:55:32;9.57;;;5.07;;
30617;SDS011;17384;51.214;9.202;2023-01-28T01:58:01;9.52;;;4.25;;
30617;SDS011;17384;51.214;9.202;2023-01-28T02:00:30;10.23;;;4.57;;
30617;SDS011;17384;51.214;9.202;2023-01-28T02:02:56;8.00;;;4.95;;
30617;SDS011;17384;51.214;9.202;2023-01-28T02:05:23;7.65;;;4.97;;
30617;SDS011;17384;51.214;9.202;2023-01-28T02:07:49;11.23;;;5.25;;
30617;SDS011;17384;51.214;9.202;2023-01-28T02:10:19;10.30;;;5.50;;
30617;SDS011;17384;51.214;9.202;2023-01-28T02:12:49;11.32;;;5.40;;
30617;SDS011;17384;51.214;9.202;2023-01-28T02:15:20;8.70;;;5.20;;
30617;SDS011;17384;51.214;9.202;2023-01-28T02:17:48;7.47;;;4.53;;
30617;SDS011;17384;51.214;9.202;2023-01-28T02:20:25;9.55;;;5.80;;
30617;SDS011;17384;51.214;9.202;2023-01-28T02:29:18;13.95;;;5.68;;
30617;SDS011;17384;51.214;9.202;2023-01-28T02:37:24;10.25;;;5.85;;
30617;SDS011;17384;51.214;9.202;2023-01-28T02:40:03;10.30;;;5.82;;
30617;SDS011;17384;51.214;9.202;2023-01-28T02:42:34;10.73;;;5.28;;
30617;SDS011;17384;51.214;9.202;2023-01-28T02:45:02;9.50;;;5.35;;
30617;SDS011;17384;51.214;9.202;2023-01-28T02:47:36;9.52;;;6.32;;
30617;SDS011;17384;51.214;9.202;2023-01-28T02:50:20;12.48;;;6.55;;
30617;SDS011;17384;51.214;9.202;2023-01-28T03:03:50;12.38;;;6.25;;
30617;SDS011;17384;51.214;9.202;2023-01-28T03:06:19;10.18;;;6.00;;
30617;SDS011;17384;51.214;9.202;2023-01-28T03:08:49;13.05;;;6.10;;
30617;SDS011;17384;51.214;9.202;2023-01-28T03:11:41;8.32;;;6.00;;
30617;SDS011;17384;51.214;9.202;2023-01-28T03:14:29;13.57;;;5.22;;
30617;SDS011;17384;51.214;9.202;2023-01-28T03:17:21;9.35;;;5.10;;
30617;SDS011;17384;51.214;9.202;2023-01-28T03:20:19;9.02;;;5.43;;
30617;SDS011;17384;51.214;9.202;2023-01-28T03:23:07;8.35;;;5.00;;
30617;SDS011;17384;51.214;9.202;2023-01-28T03:25:56;9.07;;;4.25;;
30617;SDS011;17384;51.214;9.202;2023-01-28T03:28:44;8.80;;;3.95;;
30617;SDS011;17384;51.214;9.202;2023-01-28T03:31:30;6.78;;;4.57;;
30617;SDS011;17384;51.214;9.202;2023-01-28T03:34:17;5.75;;;4.30;;
30617;SDS011;17384;51.214;9.202;2023-01-28T03:37:03;7.80;;;3.83;;
30617;SDS011;17384;51.214;9.202;2023-01-28T03:39:29;10.13;;;4.03;;
30617;SDS011;17384;51.214;9.202;2023-01-28T03:42:02;9.75;;;5.53;;
30617;SDS011;17384;51.214;9.202;2023-01-28T03:44:33;8.55;;;5.70;;
30617;SDS011;17384;51.214;9.202;2023-01-28T03:47:19;4.90;;;4.35;;
30617;SDS011;17384;51.214;9.202;2023-01-28T03:49:50;5.20;;;4.50;;
30617;SDS011;17384;51.214;9.202;2023-01-28T03:52:20;7.00;;;3.88;;
30617;SDS011;17384;51.214;9.202;2023-01-28T03:54:49;9.15;;;4.25;;
30617;SDS011;17384;51.214;9.202;2023-01-28T03:57:17;5.22;;;3.33;;
30617;SDS011;17384;51.214;9.202;2023-01-28T03:59:48;7.60;;;3.20;;
30617;SDS011;17384;51.214;9.202;2023-01-28T04:02:14;11.15;;;2.80;;
30617;SDS011;17384;51.214;9.202;2023-01-28T04:04:39;5.90;;;2.88;;
30617;SDS011;17384;51.214;9.202;2023-01-28T04:07:06;5.38;;;3.20;;
30617;SDS011;17384;51.214;9.202;2023-01-28T04:09:34;5.35;;;3.35;;
30617;SDS011;17384;51.214;9.202;2023-01-28T04:12:03;11.75;;;3.78;;
30617;SDS011;17384;51.214;9.202;2023-01-28T04:14:29;9.45;;;3.17;;
30617;SDS011;17384;51.214;9.202;2023-01-28T04:16:55;8.45;;;3.58;;
30617;SDS011;17384;51.214;9.202;2023-01-28T04:19:20;4.95;;;2.72;;
30617;SDS011;17384;51.214;9.202;2023-01-28T04:21:46;4.43;;;2.47;;
30617;SDS011;17384;51.214;9.202;2023-01-28T04:24:13;6.57;;;2.65;;
30617;SDS011;17384;51.214;9.202;2023-01-28T04:26:39;4.07;;;2.42;;
30617;SDS011;17384;51.214;9.202;2023-01-28T04:29:04;8.82;;;2.63;;
30617;SDS011;17384;51.214;9.202;2023-01-28T04:31:30;7.88;;;2.95;;
30617;SDS011;17384;51.214;9.202;2023-01-28T04:33:56;5.45;;;2.88;;
30617;SDS011;17384;51.214;9.202;2023-01-28T04:36:22;3.50;;;2.88;;
30617;SDS011;17384;51.214;9.202;2023-01-28T04:38:48;5.35;;;2.58;;
30617;SDS011;17384;51.214;9.202;2023-01-28T04:41:14;4.95;;;2.53;;
30617;SDS011;17384;51.214;9.202;2023-01-28T04:43:39;7.78;;;2.65;;
30617;SDS011;17384;51.214;9.202;2023-01-28T04:46:05;5.15;;;2.42;;
30617;SDS011;17384;51.214;9.202;2023-01-28T04:48:30;3.60;;;2.58;;
30617;SDS011;17384;51.214;9.202;2023-01-28T04:50:56;8.15;;;2.80;;
30617;SDS011;17384;51.214;9.202;2023-01-28T04:53:21;4.63;;;2.47;;
30617;SDS011;17384;51.214;9.202;2023-01-28T04:55:47;4.38;;;2.20;;
30617;SDS011;17384;51.214;9.202;2023-01-28T04:58:12;6.10;;;2.08;;
30617;SDS011;17384;51.214;9.202;2023-01-28T05:00:38;3.22;;;2.28;;
30617;SDS011;17384;51.214;9.202;2023-01-28T05:03:03;4.30;;;2.92;;
30617;SDS011;17384;51.214;9.202;2023-01-28T05:05:29;10.35;;;2.30;;
30617;SDS011;17384;51.214;9.202;2023-01-28T05:07:55;2.53;;;1.70;;
30617;SDS011;17384;51.214;9.202;2023-01-28T05:10:22;2.05;;;1.85;;
30617;SDS011;17384;51.214;9.202;2023-01-28T05:12:48;2.20;;;2.00;;
30617;SDS011;17384;51.214;9.202;2023-01-28T05:15:14;7.75;;;2.60;;
30617;SDS011;17384;51.214;9.202;2023-01-28T05:17:41;2.53;;;2.33;;
30617;SDS011;17384;51.214;9.202;2023-01-28T05:20:07;11.43;;;3.33;;
30617;SDS011;17384;51.214;9.202;2023-01-28T05:22:34;4.60;;;2.60;;
30617;SDS011;17384;51.214;9.202;2023-01-28T05:24:59;1.80;;;1.70;;
30617;SDS011;17384;51.214;9.202;2023-01-28T05:27:27;1.70;;;1.60;;
30617;SDS011;17384;51.214;9.202;2023-01-28T05:29:53;4.05;;;2.70;;
30617;SDS011;17384;51.214;9.202;2023-01-28T05:32:18;4.28;;;2.30;;
30617;SDS011;17384;51.214;9.202;2023-01-28T05:34:44;2.75;;;2.03;;
30617;SDS011;17384;51.214;9.202;2023-01-28T05:37:09;12.20;;;5.15;;
30617;SDS011;17384;51.214;9.202;2023-01-28T05:39:35;9.07;;;4.60;;
30617;SDS011;17384;51.214;9.202;2023-01-28T05:42:00;11.13;;;5.50;;
30617;SDS011;17384;51.214;9.202;2023-01-28T05:44:26;5.93;;;3.17;;
30617;SDS011;17384;51.214;9.202;2023-01-28T05:46:51;14.23;;;3.60;;
30617;SDS011;17384;51.214;9.202;2023-01-28T05:49:16;5.72;;;3.08;;
30617;SDS011;17384;51.214;9.202;2023-01-28T05:51:42;4.18;;;3.00;;
30617;SDS011;17384;51.214;9.202;2023-01-28T05:54:08;2.92;;;2.60;;
30617;SDS011;17384;51.214;9.202;2023-01-28T05:56:34;3.35;;;3.05;;
30617;SDS011;17384;51.214;9.202;2023-01-28T05:59:00;7.63;;;5.20;;
30617;SDS011;17384;51.214;9.202;2023-01-28T06:01:27;4.38;;;3.72;;
30617;SDS011;17384;51.214;9.202;2023-01-28T06:03:52;5.95;;;3.28;;
30617;SDS011;17384;51.214;9.202;2023-01-28T06:06:18;7.78;;;4.63;;
30617;SDS011;17384;51.214;9.202;2023-01-28T06:08:43;3.30;;;3.00;;
30617;SDS011;17384;51.214;9.202;2023-01-28T06:11:08;5.90;;;3.80;;
30617;SDS011;17384;51.214;9.202;2023-01-28T06:13:34;6.30;;;3.15;;
30617;SDS011;17384;51.214;9.202;2023-01-28T06:15:59;8.85;;;4.15;;
30617;SDS011;17384;51.214;9.202;2023-01-28T06:18:25;5.72;;;3.20;;
30617;SDS011;17384;51.214;9.202;2023-01-28T06:20:50;10.80;;;6.10;;
30617;SDS011;17384;51.214;9.202;2023-01-28T06:23:16;6.95;;;4.65;;
30617;SDS011;17384;51.214;9.202;2023-01-28T06:25:42;6.47;;;3.25;;
30617;SDS011;17384;51.214;9.202;2023-01-28T06:28:07;11.88;;;2.30;;
30617;SDS011;17384;51.214;9.202;2023-01-28T06:30:33;3.05;;;2.40;;
30617;SDS011;17384;51.214;9.202;2023-01-28T06:32:59;4.47;;;2.05;;
30617;SDS011;17384;51.214;9.202;2023-01-28T06:35:24;3.25;;;2.40;;
30617;SDS011;17384;51.214;9.202;2023-01-28T06:37:50;2.53;;;2.33;;
30617;SDS011;17384;51.214;9.202;2023-01-28T06:40:17;3.70;;;2.60;;
30617;SDS011;17384;51.214;9.202;2023-01-28T06:42:42;2.50;;;2.25;;
30617;SDS011;17384;51.214;9.202;2023-01-28T06:45:08;3.88;;;2.45;;
30617;SDS011;17384;51.214;9.202;2023-01-28T06:47:33;3.10;;;1.95;;
30617;SDS011;17384;51.214;9.202;2023-01-28T06:49:59;4.03;;;1.88;;
30617;SDS011;17384;51.214;9.202;2023-01-28T06:52:24;2.47;;;2.10;;
30617;SDS011;17384;51.214;9.202;2023-01-28T06:54:50;3.58;;;2.00;;
30617;SDS011;17384;51.214;9.202;2023-01-28T06:57:15;5.15;;;2.20;;
30617;SDS011;17384;51.214;9.202;2023-01-28T06:59:41;3.45;;;2.10;;
30617;SDS011;17384;51.214;9.202;2023-01-28T07:02:07;5.95;;;2.67;;
30617;SDS011;17384;51.214;9.202;2023-01-28T07:04:35;2.42;;;1.75;;
30617;SDS011;17384;51.214;9.202;2023-01-28T07:07:01;7.75;;;2.33;;
30617;SDS011;17384;51.214;9.202;2023-01-28T07:09:26;4.75;;;1.95;;
30617;SDS011;17384;51.214;9.202;2023-01-28T07:11:52;2.20;;;2.00;;
30617;SDS011;17384;51.214;9.202;2023-01-28T07:14:17;6.03;;;3.80;;
30617;SDS011;17384;51.214;9.202;2023-01-28T07:16:43;7.03;;;4.55;;
30617;SDS011;17384;51.214;9.202;2023-01-28T07:19:08;3.85;;;1.80;;
30617;SDS011;17384;51.214;9.202;2023-01-28T07:21:34;9.73;;;5.05;;
30617;SDS011;17384;51.214;9.202;2023-01-28T07:23:59;12.57;;;6.93;;
30617;SDS011;17384;51.214;9.202;2023-01-28T07:26:24;12.00;;;10.20;;
30617;SDS011;17384;51.214;9.202;2023-01-28T07:28:50;18.55;;;16.27;;
30617;SDS011;17384;51.214;9.202;2023-01-28T07:31:15;12.75;;;8.43;;
30617;SDS011;17384;51.214;9.202;2023-01-28T07:33:41;6.22;;;4.75;;
30617;SDS011;17384;51.214;9.202;2023-01-28T07:36:06;8.60;;;2.67;;
30617;SDS011;17384;51.214;9.202;2023-01-28T07:38:32;4.50;;;3.20;;
30617;SDS011;17384;51.214;9.202;2023-01-28T07:40:57;7.88;;;4.68;;
30617;SDS011;17384;51.214;9.202;2023-01-28T07:43:23;21.98;;;12.80;;
30617;SDS011;17384;51.214;9.202;2023-01-28T07:45:48;12.77;;;3.55;;
30617;SDS011;17384;51.214;9.202;2023-01-28T07:48:14;8.02;;;5.00;;
30617;SDS011;17384;51.214;9.202;2023-01-28T07:50:40;10.77;;;6.65;;
30617;SDS011;17384;51.214;9.202;2023-01-28T07:53:07;5.15;;;3.55;;
30617;SDS011;17384;51.214;9.202;2023-01-28T07:55:34;8.20;;;4.28;;
30617;SDS011;17384;51.214;9.202;2023-01-28T07:58:01;9.77;;;5.07;;
30617;SDS011;17384;51.214;9.202;2023-01-28T08:00:29;4.93;;;4.43;;
30617;SDS011;17384;51.214;9.202;2023-01-28T08:02:57;7.50;;;6.15;;
30617;SDS011;17384;51.214;9.202;2023-01-28T08:05:24;11.32;;;3.78;;
30617;SDS011;17384;51.214;9.202;2023-01-28T08:07:54;3.90;;;3.53;;
30617;SDS011;17384;51.214;9.202;2023-01-28T08:10:19;5.85;;;3.97;;
30617;SDS011;17384;51.214;9.202;2023-01-28T08:12:54;5.90;;;4.22;;
30617;SDS011;17384;51.214;9.202;2023-01-28T08:15:25;4.32;;;3.10;;
30617;SDS011;17384;51.214;9.202;2023-01-28T08:17:54;7.60;;;2.80;;
30617;SDS011;17384;51.214;9.202;2023-01-28T08:20:21;4.93;;;2.60;;
30617;SDS011;17384;51.214;9.202;2023-01-28T08:22:47;7.78;;;2.00;;
30617;SDS011;17384;51.214;9.202;2023-01-28T08:27:41;7.15;;;3.55;;
30617;SDS011;17384;51.214;9.202;2023-01-28T08:30:06;7.22;;;3.75;;
30617;SDS011;17384;51.214;9.202;2023-01-28T08:32:34;6.78;;;3.03;;
30617;SDS011;17384;51.214;9.202;2023-01-28T08:35:01;3.97;;;2.88;;
30617;SDS011;17384;51.214;9.202;2023-01-28T08:37:26;3.33;;;2.70;;
30617;SDS011;17384;51.214;9.202;2023-01-28T08:40:01;6.05;;;2.90;;
30617;SDS011;17384;51.214;9.202;2023-01-28T08:42:29;4.60;;;2.70;;
30617;SDS011;17384;51.214;9.202;2023-01-28T08:44:57;5.60;;;3.05;;
30617;SDS011;17384;51.214;9.202;2023-01-28T08:47:23;6.30;;;3.35;;
30617;SDS011;17384;51.214;9.202;2023-01-28T08:49:49;2.95;;;1.98;;
30617;SDS011;17384;51.214;9.202;2023-01-28T08:52:14;3.63;;;2.42;;
30617;SDS011;17384;51.214;9.202;2023-01-28T08:54:40;6.15;;;3.15;;
30617;SDS011;17384;51.214;9.202;2023-01-28T08:57:05;3.28;;;2.47;;
30617;SDS011;17384;51.214;9.202;2023-01-28T08:59:31;7.35;;;3.10;;
30617;SDS011;17384;51.214;9.202;2023-01-28T09:01:57;7.90;;;4.50;;
30617;SDS011;17384;51.214;9.202;2023-01-28T09:04:23;10.07;;;6.43;;
30617;SDS011;17384;51.214;9.202;2023-01-28T09:06:49;6.45;;;5.53;;
30617;SDS011;17384;51.214;9.202;2023-01-28T09:09:14;6.28;;;3.47;;
30617;SDS011;17384;51.214;9.202;2023-01-28T09:11:40;5.15;;;2.90;;
30617;SDS011;17384;51.214;9.202;2023-01-28T09:14:05;10.88;;;3.28;;
30617;SDS011;17384;51.214;9.202;2023-01-28T09:16:31;4.82;;;3.72;;
30617;SDS011;17384;51.214;9.202;2023-01-28T09:18:57;10.40;;;4.57;;
30617;SDS011;17384;51.214;9.202;2023-01-28T09:21:22;4.82;;;3.47;;
30617;SDS011;17384;51.214;9.202;2023-01-28T09:23:48;4.18;;;2.05;;
30617;SDS011;17384;51.214;9.202;2023-01-28T09:26:14;1.80;;;1.70;;
30617;SDS011;17384;51.214;9.202;2023-01-28T09:28:40;1.75;;;1.65;;
30617;SDS011;17384;51.214;9.202;2023-01-28T09:31:07;4.88;;;1.85;;
30617;SDS011;17384;51.214;9.202;2023-01-28T09:33:35;4.53;;;1.95;;
30617;SDS011;17384;51.214;9.202;2023-01-28T09:36:04;2.83;;;1.95;;
30617;SDS011;17384;51.214;9.202;2023-01-28T09:38:32;4.47;;;2.00;;
30617;SDS011;17384;51.214;9.202;2023-01-28T09:40:59;5.32;;;2.78;;
30617;SDS011;17384;51.214;9.202;2023-01-28T09:46:35;5.72;;;2.47;;
30617;SDS011;17384;51.214;9.202;2023-01-28T09:49:04;5.32;;;3.47;;
30617;SDS011;17384;51.214;9.202;2023-01-28T09:51:45;14.43;;;7.43;;
30617;SDS011;17384;51.214;9.202;2023-01-28T09:54:23;10.25;;;3.90;;
30617;SDS011;17384;51.214;9.202;2023-01-28T09:56:50;6.20;;;2.92;;
30617;SDS011;17384;51.214;9.202;2023-01-28T09:59:21;6.82;;;3.22;;
30617;SDS011;17384;51.214;9.202;2023-01-28T10:01:52;6.72;;;4.22;;
30617;SDS011;17384;51.214;9.202;2023-01-28T10:10:05;12.38;;;4.18;;
30617;SDS011;17384;51.214;9.202;2023-01-28T10:13:20;6.82;;;3.88;;
30617;SDS011;17384;51.214;9.202;2023-01-28T10:18:14;6.57;;;2.90;;
30617;SDS011;17384;51.214;9.202;2023-01-28T10:20:44;7.35;;;3.40;;
30617;SDS011;17384;51.214;9.202;2023-01-28T10:25:48;2.67;;;2.42;;
30617;SDS011;17384;51.214;9.202;2023-01-28T10:28:18;3.17;;;2.70;;
30617;SDS011;17384;51.214;9.202;2023-01-28T10:30:47;4.45;;;2.72;;
30617;SDS011;17384;51.214;9.202;2023-01-28T10:33:21;4.40;;;2.88;;
30617;SDS011;17384;51.214;9.202;2023-01-28T10:35:55;5.25;;;2.80;;
30617;SDS011;17384;51.214;9.202;2023-01-28T10:38:30;4.35;;;3.17;;
30617;SDS011;17384;51.214;9.202;2023-01-28T10:40:57;7.90;;;3.97;;
30617;SDS011;17384;51.214;9.202;2023-01-28T10:43:28;14.38;;;6.35;;
30617;SDS011;17384;51.214;9.202;2023-01-28T10:46:06;8.80;;;5.75;;
30617;SDS011;17384;51.214;9.202;2023-01-28T10:49:23;8.30;;;5.32;;
30617;SDS011;17384;51.214;9.202;2023-01-28T10:51:38;7.55;;;4.95;;
30617;SDS011;17384;51.214;9.202;2023-01-28T10:54:22;6.70;;;5.30;;
30617;SDS011;17384;51.214;9.202;2023-01-28T10:56:49;7.32;;;5.30;;
30617;SDS011;17384;51.214;9.202;2023-01-28T11:01:58;10.00;;;6.35;;
30617;SDS011;17384;51.214;9.202;2023-01-28T11:04:31;8.15;;;5.88;;
30617;SDS011;17384;51.214;9.202;2023-01-28T11:07:00;9.82;;;5.68;;
30617;SDS011;17384;51.214;9.202;2023-01-28T11:11:55;6.25;;;5.15;;
30617;SDS011;17384;51.214;9.202;2023-01-28T11:14:34;8.05;;;5.50;;
30617;SDS011;17384;51.214;9.202;2023-01-28T11:17:00;10.93;;;6.15;;
30617;SDS011;17384;51.214;9.202;2023-01-28T11:19:28;12.75;;;6.95;;
30617;SDS011;17384;51.214;9.202;2023-01-28T11:22:00;6.80;;;5.35;;
30617;SDS011;17384;51.214;9.202;2023-01-28T11:24:31;9.30;;;6.07;;
30617;SDS011;17384;51.214;9.202;2023-01-28T11:27:00;24.92;;;10.40;;
30617;SDS011;17384;51.214;9.202;2023-01-28T11:29:34;25.08;;;11.18;;
30617;SDS011;17384;51.214;9.202;2023-01-28T11:32:04;28.92;;;10.90;;
30617;SDS011;17384;51.214;9.202;2023-01-28T11:34:32;34.20;;;12.32;;
30617;SDS011;17384;51.214;9.202;2023-01-28T11:37:03;10.48;;;5.88;;
30617;SDS011;17384;51.214;9.202;2023-01-28T11:39:40;7.55;;;5.40;;
30617;SDS011;17384;51.214;9.202;2023-01-28T11:42:15;8.20;;;5.43;;
30617;SDS011;17384;51.214;9.202;2023-01-28T11:44:41;7.32;;;4.82;;
30617;SDS011;17384;51.214;9.202;2023-01-28T11:50:14;9.88;;;5.30;;
30617;SDS011;17384;51.214;9.202;2023-01-28T11:53:08;9.88;;;5.47;;
30617;SDS011;17384;51.214;9.202;2023-01-28T11:56:08;12.65;;;4.95;;
30617;SDS011;17384;51.214;9.202;2023-01-28T12:01:52;9.57;;;4.57;;
30617;SDS011;17384;51.214;9.202;2023-01-28T12:04:22;6.65;;;4.30;;
30617;SDS011;17384;51.214;9.202;2023-01-28T12:23:34;5.85;;;3.97;;
30617;SDS011;17384;51.214;9.202;2023-01-28T12:38:08;4.18;;;2.65;;
30617;SDS011;17384;51.214;9.202;2023-01-28T12:40:48;4.47;;;3.30;;
30617;SDS011;17384;51.214;9.202;2023-01-28T12:44:02;3.72;;;2.92;;
30617;SDS011;17384;51.214;9.202;2023-01-28T12:49:13;12.35;;;4.90;;
30617;SDS011;17384;51.214;9.202;2023-01-28T12:51:56;6.35;;;4.05;;
30617;SDS011;17384;51.214;9.202;2023-01-28T12:54:52;6.68;;;3.83;;
30617;SDS011;17384;51.214;9.202;2023-01-28T12:57:28;4.93;;;3.13;;
30617;SDS011;17384;51.214;9.202;2023-01-28T13:02:46;8.35;;;3.30;;
30617;SDS011;17384;51.214;9.202;2023-01-28T13:05:20;5.55;;;3.80;;
30617;SDS011;17384;51.214;9.202;2023-01-28T13:10:37;3.60;;;2.85;;
30617;SDS011;17384;51.214;9.202;2023-01-28T13:13:11;7.25;;;4.05;;
30617;SDS011;17384;51.214;9.202;2023-01-28T13:15:52;5.68;;;4.25;;
30617;SDS011;17384;51.214;9.202;2023-01-28T13:18:34;7.32;;;3.60;;
30617;SDS011;17384;51.214;9.202;2023-01-28T13:21:15;8.30;;;4.28;;
30617;SDS011;17384;51.214;9.202;2023-01-28T13:27:36;4.37;;;3.83;;
30617;SDS011;17384;51.214;9.202;2023-01-28T13:29:46;3.95;;;3.47;;
30617;SDS011;17384;51.214;9.202;2023-01-28T13:32:29;5.50;;;3.63;;
30617;SDS011;17384;51.214;9.202;2023-01-28T13:35:39;7.00;;;3.67;;
30617;SDS011;17384;51.214;9.202;2023-01-28T13:37:58;6.70;;;4.13;;
30617;SDS011;17384;51.214;9.202;2023-01-28T13:40:29;4.60;;;4.13;;
30617;SDS011;17384;51.214;9.202;2023-01-28T13:43:05;4.97;;;3.85;;
30617;SDS011;17384;51.214;9.202;2023-01-28T13:45:57;3.78;;;3.35;;
30617;SDS011;17384;51.214;9.202;2023-01-28T13:51:22;6.47;;;4.75;;
30617;SDS011;17384;51.214;9.202;2023-01-28T13:54:09;7.10;;;5.80;;
30617;SDS011;17384;51.214;9.202;2023-01-28T13:56:49;8.63;;;6.32;;
30617;SDS011;17384;51.214;9.202;2023-01-28T14:02:07;6.60;;;4.10;;
30617;SDS011;17384;51.214;9.202;2023-01-28T14:05:12;6.18;;;3.38;;
30617;SDS011;17384;51.214;9.202;2023-01-28T14:08:17;8.05;;;4.28;;
30617;SDS011;17384;51.214;9.202;2023-01-28T14:10:54;3.78;;;3.47;;
30617;SDS011;17384;51.214;9.202;2023-01-28T14:13:50;13.05;;;6.38;;
30617;SDS011;17384;51.214;9.202;2023-01-28T14:19:24;4.72;;;4.32;;
30617;SDS011;17384;51.214;9.202;2023-01-28T14:21:56;6.53;;;5.30;;
30617;SDS011;17384;51.214;9.202;2023-01-28T14:24:22;5.90;;;4.65;;
30617;SDS011;17384;51.214;9.202;2023-01-28T14:26:53;9.77;;;5.55;;
30617;SDS011;17384;51.214;9.202;2023-01-28T14:32:15;5.32;;;3.47;;
30617;SDS011;17384;51.214;9.202;2023-01-28T14:34:43;10.88;;;4.13;;
30617;SDS011;17384;51.214;9.202;2023-01-28T14:37:14;4.80;;;3.45;;
30617;SDS011;17384;51.214;9.202;2023-01-28T14:39:46;5.07;;;3.30;;
30617;SDS011;17384;51.214;9.202;2023-01-28T14:42:21;7.35;;;2.97;;
30617;SDS011;17384;51.214;9.202;2023-01-28T14:44:54;5.45;;;3.20;;
30617;SDS011;17384;51.214;9.202;2023-01-28T14:58:05;3.67;;;3.30;;
30617;SDS011;17384;51.214;9.202;2023-01-28T15:03:16;9.48;;;4.18;;
30617;SDS011;17384;51.214;9.202;2023-01-28T15:05:42;7.47;;;4.40;;
30617;SDS011;17384;51.214;9.202;2023-01-28T15:08:08;6.25;;;4.57;;
30617;SDS011;17384;51.214;9.202;2023-01-28T15:10:44;7.68;;;4.43;;
30617;SDS011;17384;51.214;9.202;2023-01-28T15:13:12;5.88;;;3.70;;
30617;SDS011;17384;51.214;9.202;2023-01-28T15:15:50;4.60;;;4.07;;
30617;SDS011;17384;51.214;9.202;2023-01-28T15:18:33;9.05;;;4.78;;
30617;SDS011;17384;51.214;9.202;2023-01-28T15:21:02;4.70;;;3.78;;
30617;SDS011;17384;51.214;9.202;2023-01-28T15:23:30;3.40;;;3.10;;
30617;SDS011;17384;51.214;9.202;2023-01-28T15:26:09;8.60;;;3.85;;
30617;SDS011;17384;51.214;9.202;2023-01-28T15:28:41;5.15;;;3.70;;
30617;SDS011;17384;51.214;9.202;2023-01-28T15:31:19;4.97;;;3.90;;
30617;SDS011;17384;51.214;9.202;2023-01-28T15:33:44;4.47;;;4.00;;
30617;SDS011;17384;51.214;9.202;2023-01-28T15:36:10;6.90;;;5.57;;
30617;SDS011;17384;51.214;9.202;2023-01-28T15:38:45;10.10;;;5.22;;
30617;SDS011;17384;51.214;9.202;2023-01-28T15:41:10;8.00;;;5.25;;
30617;SDS011;17384;51.214;9.202;2023-01-28T15:43:37;10.85;;;6.55;;
30617;SDS011;17384;51.214;9.202;2023-01-28T15:46:03;15.63;;;7.60;;
30617;SDS011;17384;51.214;9.202;2023-01-28T15:48:35;14.70;;;7.15;;
30617;SDS011;17384;51.214;9.202;2023-01-28T15:51:15;18.35;;;9.45;;
30617;SDS011;17384;51.214;9.202;2023-01-28T15:53:57;11.88;;;5.25;;
30617;SDS011;17384;51.214;9.202;2023-01-28T15:56:29;7.30;;;4.38;;
30617;SDS011;17384;51.214;9.202;2023-01-28T15:59:06;4.28;;;3.00;;
30617;SDS011;17384;51.214;9.202;2023-01-28T16:01:44;4.63;;;3.40;;
30617;SDS011;17384;51.214;9.202;2023-01-28T16:04:22;4.35;;;3.13;;
30617;SDS011;17384;51.214;9.202;2023-01-28T16:06:50;11.40;;;5.63;;
30617;SDS011;17384;51.214;9.202;2023-01-28T16:12:16;7.35;;;4.47;;
30617;SDS011;17384;51.214;9.202;2023-01-28T16:14:45;6.47;;;4.78;;
30617;SDS011;17384;51.214;9.202;2023-01-28T16:17:18;7.95;;;4.57;;
30617;SDS011;17384;51.214;9.202;2023-01-28T16:19:49;7.32;;;4.00;;
30617;SDS011;17384;51.214;9.202;2023-01-28T16:22:22;5.50;;;4.03;;
30617;SDS011;17384;51.214;9.202;2023-01-28T16:24:59;8.50;;;3.88;;
30617;SDS011;17384;51.214;9.202;2023-01-28T16:27:26;6.70;;;3.38;;
30617;SDS011;17384;51.214;9.202;2023-01-28T16:30:03;8.43;;;4.03;;
30617;SDS011;17384;51.214;9.202;2023-01-28T17:05:43;11.13;;;6.15;;
30617;SDS011;17384;51.214;9.202;2023-01-28T17:26:21;10.93;;;5.75;;
30617;SDS011;17384;51.214;9.202;2023-01-28T17:36:05;5.28;;;4.35;;
30617;SDS011;17384;51.214;9.202;2023-01-28T18:16:18;18.63;;;10.43;;
30617;SDS011;17384;51.214;9.202;2023-01-28T19:11:51;13.07;;;7.88;;
30617;SDS011;17384;51.214;9.202;2023-01-28T19:17:56;14.88;;;9.35;;
30617;SDS011;17384;51.214;9.202;2023-01-28T19:24:22;16.08;;;9.10;;
30617;SDS011;17384;51.214;9.202;2023-01-28T20:13:25;40.22;;;18.70;;
30617;SDS011;17384;51.214;9.202;2023-01-28T20:23:08;30.05;;;14.32;;
30617;SDS011;17384;51.214;9.202;2023-01-28T20:28:45;25.67;;;15.35;;
30617;SDS011;17384;51.214;9.202;2023-01-28T20:31:11;27.73;;;15.55;;
30617;SDS011;17384;51.214;9.202;2023-01-28T20:33:37;28.38;;;15.52;;
30617;SDS011;17384;51.214;9.202;2023-01-28T20:36:05;28.40;;;16.83;;
30617;SDS011;17384;51.214;9.202;2023-01-28T20:38:33;29.25;;;15.80;;